x

South Moresby (46147) Wave Buoy

2:00pm - Sun 19th Feb 2017 All times are PST. -8 hours from GMT.

  • Sig Wave height 6.6ft
  • Peak Period 17s
  • Wind
    9mph, 13mph gusts
  • Sea Temp 46°f
  • Air Temp 41°f
  • Sea Pressure 996.6mb
  • South Moresby
  • South Moresby

More Historic Weather Station data

Upgrade to MSW Pro to gain access to the past 30 days of data for over 8000 Wavebouys and Weather Stations around the globe.

Join Pro

Comparision Forecast

View Surf forecast
   
Sun 02/19 2:00pm 6.5ft 17s 9 13 mph 996.6mb 46f 41f
1:00pm 6ft 17s 9 11 mph 996.5mb 46f 42f
12:00pm 5ft 17s 9 11 mph 996.6mb 46f 42f
11:00am 5ft 18s 11 16 mph 996.3mb 46f 42f
10:00am 4.5ft 18s 9 13 mph 996mb 46f 42f
9:00am 4.5ft 9s 9 13 mph 995.8mb 46f 41f
8:00am 4.5ft 10s 7 9 mph 995.6mb 46f 41f
7:00am 4.5ft 11s 7 9 mph 995.5mb 46f 41f
6:00am 4.5ft 10s 7 11 mph 995.4mb 46f 41f
5:00am 5ft 11s 9 11 mph 995.4mb 46f 40f
4:00am 5ft 10s 7 11 mph 995.6mb 46f 40f
3:00am 5ft 11s 4 7 mph 995.9mb 46f 40f
2:00am 5.5ft 10s 4 7 mph 995.8mb 46f 40f
1:00am 6ft 10s 9 11 mph 995.8mb 46f 40f
12:00am 6ft 10s 9 11 mph 996mb 46f 40f
Sat 02/18 11:00pm 6ft 10s 9 13 mph 995.9mb 46f 40f
10:00pm 6.5ft 10s 9 11 mph 995.9mb 46f 40f
9:00pm 6ft 10s 9 13 mph 996mb 46f 40f
8:00pm 6ft 11s 11 13 mph 995.8mb 46f 40f
7:00pm 6ft 11s 13 18 mph 995.5mb 46f 41f
6:00pm 6.5ft 11s 13 20 mph 995.8mb 46f 41f
5:00pm 7ft 12s 13 16 mph 996.2mb 46f 41f
4:00pm 7ft 11s 13 18 mph 996.6mb 46f 41f
3:00pm 6.5ft 11s 13 18 mph 996.9mb 46f 42f
2:00pm 7ft 11s 13 18 mph 997.2mb 46f 42f
1:00pm 7ft 11s 9 16 mph 997.8mb 46f 42f
12:00pm 7.5ft 11s 11 16 mph 998.4mb 46f 41f
11:00am 7ft 11s 11 16 mph 999mb 46f 41f
10:00am 7.5ft 11s 11 13 mph 999.7mb 46f 41f
9:00am 7.5ft 12s 13 18 mph 1000.3mb 46f 40f
8:00am 8ft 11s 16 20 mph 1000.7mb 46f 40f
7:00am 8.5ft 12s 13 18 mph 1001.3mb 46f 41f
6:00am 8ft 12s 13 16 mph 1002.1mb 46f 41f
5:00am 8.5ft 11s 11 16 mph 1003mb 46f 41f
4:00am 9ft 10s 11 13 mph 1003.6mb 46f 41f
3:00am 10ft 11s 13 16 mph 1004.3mb 46f 41f
2:00am 9.5ft 11s 9 13 mph 1004.9mb 46f 42f
1:00am 10.5ft 12s 9 13 mph 1005.6mb 46f 42f
12:00am 10ft 12s 9 11 mph 1006.1mb 46f 42f
Fri 02/17 11:00pm 9ft 12s 9 13 mph 1006.5mb 46f 42f
10:00pm 9.5ft 11s 9 11 mph 1007.1mb 46f 42f
9:00pm 10ft 11s 7 9 mph 1007.4mb 46f 42f
8:00pm 9ft 12s 4 7 mph 1007.7mb 46f 42f
7:00pm 10ft 12s 4 9 mph 1007.8mb 46f 43f
6:00pm 11ft 12s 11 13 mph 1008mb 46f 42f
5:00pm 10.5ft 12s 7 11 mph 1008.3mb 46f 43f
4:00pm 11.5ft 11s 7 11 mph 1008.7mb 46f 43f
3:00pm 10.5ft 12s 7 13 mph 1008.9mb 46f 42f
2:00pm 10ft 10s 11 18 mph 1009mb 46f 42f
1:00pm 10ft 12s 2 4 mph 1009.2mb 46f 44f
12:00pm 10ft 10s 2 7 mph 1009.4mb 46f 43f
11:00am 9ft 10s 4 7 mph 1009.2mb 46f 42f
10:00am 9ft 10s 7 9 mph 1009mb 46f 42f
9:00am 9ft 11s 9 11 mph 1008.8mb 46f 42f
8:00am 9ft 10s 7 11 mph 1008.4mb 46f 42f
7:00am 10ft 11s 7 13 mph 1008.1mb 46f 41f
6:00am 9ft 11s 13 20 mph 1007.8mb 46f 40f
5:00am 9ft 10s 16 22 mph 1007.4mb 46f 40f
4:00am 10ft 12s 13 18 mph 1007mb 46f 39f
3:00am 11ft 12s 13 18 mph 1006.7mb 46f 39f
2:00am 12ft 12s 13 18 mph 1005.9mb 46f 39f
1:00am 11ft 12s 16 20 mph 1005.3mb 46f 41f
12:00am 12ft 11s 16 22 mph 1004.3mb 46f 42f
Thu 02/16 11:00pm 12ft 12s 11 16 mph 1003.7mb 46f 42f
10:00pm 12.5ft 12s 13 20 mph 1002.8mb 46f 43f
9:00pm 12ft 12s 20 25 mph 1001.6mb 46f 44f
8:00pm 14ft 12s 22 29 mph 1000.7mb 46f 43f
7:00pm 14ft 13s 22 29 mph 999.8mb 46f 44f
6:00pm 14ft 12s 22 29 mph 998.7mb 46f 44f
5:00pm 14ft 13s 25 31 mph 997.5mb 46f 44f
4:00pm 15ft 12s 27 34 mph 996.5mb 46f 44f
3:00pm 14ft 12s 25 31 mph 995.5mb 46f 44f
2:00pm 14ft 12s 25 31 mph 994.4mb 46f 44f
1:00pm 15ft 11s 25 31 mph 993.5mb 46f 44f
12:00pm 14.5ft 14s 27 34 mph 992.5mb 46f 44f
11:00am 16ft 13s 27 36 mph 991mb 46f 44f
10:00am 14ft 8s 27 36 mph 989.7mb 46f 44f
9:00am 14ft 14s 27 36 mph 988.4mb 46f 44f
8:00am 13ft 8s 27 36 mph 986.7mb 46f 44f
7:00am 10.5ft 15s 27 31 mph 985.1mb 46f 44f
5:00am 9ft 16s 18 22 mph 983.2mb 46f 45f
4:00am 10ft 12s 18 22 mph 982.7mb 46f 44f
3:00am 9ft 11s 25 31 mph 982.5mb 46f 44f
2:00am 9.5ft 16s 20 27 mph 982.3mb 46f 44f
1:00am 10.5ft 13s 22 27 mph 982.1mb 46f 44f
12:00am 10ft 10s 20 27 mph 982.4mb 46f 45f